sensor_id;sensor_type;location;lat;lon;timestamp;P1;durP1;ratioP1;P2;durP2;ratioP2
55170;SDS011;41060;47.510;8.680;2023-06-24T00:01:08;2.90;;;1.90;;
55170;SDS011;41060;47.510;8.680;2023-06-24T00:03:38;3.05;;;2.13;;
55170;SDS011;41060;47.510;8.680;2023-06-24T00:06:04;3.70;;;2.13;;
55170;SDS011;41060;47.510;8.680;2023-06-24T00:08:32;3.70;;;2.38;;
55170;SDS011;41060;47.510;8.680;2023-06-24T00:11:01;2.97;;;2.13;;
55170;SDS011;41060;47.510;8.680;2023-06-24T00:13:29;4.07;;;2.55;;
55170;SDS011;41060;47.510;8.680;2023-06-24T00:15:56;4.72;;;2.25;;
55170;SDS011;41060;47.510;8.680;2023-06-24T00:18:23;3.78;;;2.10;;
55170;SDS011;41060;47.510;8.680;2023-06-24T00:20:54;3.88;;;2.13;;
55170;SDS011;41060;47.510;8.680;2023-06-24T00:23:24;3.97;;;2.13;;
55170;SDS011;41060;47.510;8.680;2023-06-24T00:25:50;3.60;;;2.22;;
55170;SDS011;41060;47.510;8.680;2023-06-24T00:28:17;4.05;;;2.35;;
55170;SDS011;41060;47.510;8.680;2023-06-24T00:30:46;10.85;;;2.47;;
55170;SDS011;41060;47.510;8.680;2023-06-24T00:33:13;3.53;;;2.45;;
55170;SDS011;41060;47.510;8.680;2023-06-24T00:35:39;7.68;;;1.98;;
55170;SDS011;41060;47.510;8.680;2023-06-24T00:38:07;3.70;;;2.42;;
55170;SDS011;41060;47.510;8.680;2023-06-24T00:40:35;5.82;;;2.22;;
55170;SDS011;41060;47.510;8.680;2023-06-24T00:43:03;4.85;;;2.65;;
55170;SDS011;41060;47.510;8.680;2023-06-24T00:45:31;4.65;;;2.55;;
55170;SDS011;41060;47.510;8.680;2023-06-24T00:47:59;4.50;;;2.63;;
55170;SDS011;41060;47.510;8.680;2023-06-24T00:50:27;3.10;;;2.45;;
55170;SDS011;41060;47.510;8.680;2023-06-24T00:52:55;3.22;;;2.42;;
55170;SDS011;41060;47.510;8.680;2023-06-24T00:55:21;5.03;;;2.75;;
55170;SDS011;41060;47.510;8.680;2023-06-24T00:57:48;4.10;;;2.45;;
55170;SDS011;41060;47.510;8.680;2023-06-24T01:00:18;3.25;;;1.80;;
55170;SDS011;41060;47.510;8.680;2023-06-24T01:02:47;5.25;;;2.38;;
55170;SDS011;41060;47.510;8.680;2023-06-24T01:05:15;6.60;;;2.20;;
55170;SDS011;41060;47.510;8.680;2023-06-24T01:07:43;3.95;;;2.15;;
55170;SDS011;41060;47.510;8.680;2023-06-24T01:10:10;4.78;;;2.67;;
55170;SDS011;41060;47.510;8.680;2023-06-24T01:12:38;5.50;;;2.40;;
55170;SDS011;41060;47.510;8.680;2023-06-24T01:15:09;3.40;;;2.20;;
55170;SDS011;41060;47.510;8.680;2023-06-24T01:17:42;4.72;;;2.47;;
55170;SDS011;41060;47.510;8.680;2023-06-24T01:20:17;4.30;;;2.50;;
55170;SDS011;41060;47.510;8.680;2023-06-24T01:22:58;4.47;;;2.70;;
55170;SDS011;41060;47.510;8.680;2023-06-24T01:25:51;4.57;;;2.45;;
55170;SDS011;41060;47.510;8.680;2023-06-24T01:28:39;7.13;;;2.60;;
55170;SDS011;41060;47.510;8.680;2023-06-24T01:31:29;3.63;;;2.53;;
55170;SDS011;41060;47.510;8.680;2023-06-24T01:34:01;3.33;;;2.25;;
55170;SDS011;41060;47.510;8.680;2023-06-24T01:36:33;4.97;;;2.55;;
55170;SDS011;41060;47.510;8.680;2023-06-24T01:39:04;5.28;;;2.92;;
55170;SDS011;41060;47.510;8.680;2023-06-24T01:41:35;8.10;;;2.85;;
55170;SDS011;41060;47.510;8.680;2023-06-24T01:44:06;3.90;;;2.55;;
55170;SDS011;41060;47.510;8.680;2023-06-24T01:46:38;4.65;;;2.30;;
55170;SDS011;41060;47.510;8.680;2023-06-24T01:49:07;5.78;;;3.15;;
55170;SDS011;41060;47.510;8.680;2023-06-24T01:51:38;3.72;;;2.30;;
55170;SDS011;41060;47.510;8.680;2023-06-24T01:54:10;7.63;;;2.85;;
55170;SDS011;41060;47.510;8.680;2023-06-24T01:56:40;5.20;;;2.50;;
55170;SDS011;41060;47.510;8.680;2023-06-24T01:59:09;5.30;;;2.55;;
55170;SDS011;41060;47.510;8.680;2023-06-24T02:01:41;4.50;;;2.78;;
55170;SDS011;41060;47.510;8.680;2023-06-24T02:04:09;3.85;;;2.53;;
55170;SDS011;41060;47.510;8.680;2023-06-24T02:06:38;3.28;;;2.35;;
55170;SDS011;41060;47.510;8.680;2023-06-24T02:09:06;4.20;;;2.78;;
55170;SDS011;41060;47.510;8.680;2023-06-24T02:11:34;5.03;;;3.13;;
55170;SDS011;41060;47.510;8.680;2023-06-24T02:14:03;4.65;;;2.90;;
55170;SDS011;41060;47.510;8.680;2023-06-24T02:16:32;4.32;;;2.30;;
55170;SDS011;41060;47.510;8.680;2023-06-24T02:19:02;3.88;;;2.42;;
55170;SDS011;41060;47.510;8.680;2023-06-24T02:21:32;7.68;;;3.13;;
55170;SDS011;41060;47.510;8.680;2023-06-24T02:24:02;3.90;;;2.60;;
55170;SDS011;41060;47.510;8.680;2023-06-24T02:26:30;4.35;;;2.90;;
55170;SDS011;41060;47.510;8.680;2023-06-24T02:28:57;4.78;;;2.90;;
55170;SDS011;41060;47.510;8.680;2023-06-24T02:31:24;7.00;;;2.78;;
55170;SDS011;41060;47.510;8.680;2023-06-24T02:33:51;4.82;;;2.83;;
55170;SDS011;41060;47.510;8.680;2023-06-24T02:36:19;4.05;;;2.55;;
55170;SDS011;41060;47.510;8.680;2023-06-24T02:38:47;6.03;;;2.95;;
55170;SDS011;41060;47.510;8.680;2023-06-24T02:41:13;4.35;;;2.88;;
55170;SDS011;41060;47.510;8.680;2023-06-24T02:43:40;5.22;;;3.25;;
55170;SDS011;41060;47.510;8.680;2023-06-24T02:46:07;4.68;;;2.17;;
55170;SDS011;41060;47.510;8.680;2023-06-24T02:48:35;4.35;;;2.97;;
55170;SDS011;41060;47.510;8.680;2023-06-24T02:51:04;4.43;;;2.88;;
55170;SDS011;41060;47.510;8.680;2023-06-24T02:53:34;5.28;;;3.03;;
55170;SDS011;41060;47.510;8.680;2023-06-24T02:56:02;4.18;;;2.72;;
55170;SDS011;41060;47.510;8.680;2023-06-24T02:58:30;4.97;;;2.83;;
55170;SDS011;41060;47.510;8.680;2023-06-24T03:00:58;4.90;;;2.85;;
55170;SDS011;41060;47.510;8.680;2023-06-24T03:03:25;4.82;;;2.65;;
55170;SDS011;41060;47.510;8.680;2023-06-24T03:05:53;5.53;;;2.70;;
55170;SDS011;41060;47.510;8.680;2023-06-24T03:08:22;7.22;;;3.10;;
55170;SDS011;41060;47.510;8.680;2023-06-24T03:10:51;5.25;;;2.85;;
55170;SDS011;41060;47.510;8.680;2023-06-24T03:13:20;5.18;;;3.13;;
55170;SDS011;41060;47.510;8.680;2023-06-24T03:15:47;7.32;;;3.03;;
55170;SDS011;41060;47.510;8.680;2023-06-24T03:18:14;7.50;;;3.03;;
55170;SDS011;41060;47.510;8.680;2023-06-24T03:20:41;6.18;;;2.85;;
55170;SDS011;41060;47.510;8.680;2023-06-24T03:23:08;5.32;;;2.60;;
55170;SDS011;41060;47.510;8.680;2023-06-24T03:25:35;5.47;;;2.55;;
55170;SDS011;41060;47.510;8.680;2023-06-24T03:28:03;5.95;;;2.70;;
55170;SDS011;41060;47.510;8.680;2023-06-24T03:30:33;6.28;;;2.90;;
55170;SDS011;41060;47.510;8.680;2023-06-24T03:32:59;7.18;;;2.60;;
55170;SDS011;41060;47.510;8.680;2023-06-24T03:35:26;5.75;;;2.72;;
55170;SDS011;41060;47.510;8.680;2023-06-24T03:37:53;7.10;;;2.85;;
55170;SDS011;41060;47.510;8.680;2023-06-24T03:40:19;5.82;;;2.85;;
55170;SDS011;41060;47.510;8.680;2023-06-24T03:42:47;4.15;;;2.50;;
55170;SDS011;41060;47.510;8.680;2023-06-24T03:45:15;6.38;;;3.03;;
55170;SDS011;41060;47.510;8.680;2023-06-24T03:47:44;4.95;;;2.55;;
55170;SDS011;41060;47.510;8.680;2023-06-24T03:50:11;4.28;;;2.50;;
55170;SDS011;41060;47.510;8.680;2023-06-24T03:52:38;7.40;;;2.55;;
55170;SDS011;41060;47.510;8.680;2023-06-24T03:55:05;7.60;;;3.17;;
55170;SDS011;41060;47.510;8.680;2023-06-24T03:57:32;4.53;;;2.95;;
55170;SDS011;41060;47.510;8.680;2023-06-24T03:59:59;4.20;;;2.38;;
55170;SDS011;41060;47.510;8.680;2023-06-24T04:02:26;4.82;;;3.00;;
55170;SDS011;41060;47.510;8.680;2023-06-24T04:04:54;4.28;;;2.65;;
55170;SDS011;41060;47.510;8.680;2023-06-24T04:07:21;4.55;;;2.42;;
55170;SDS011;41060;47.510;8.680;2023-06-24T04:09:53;6.65;;;3.22;;
55170;SDS011;41060;47.510;8.680;2023-06-24T04:12:20;5.88;;;3.03;;
55170;SDS011;41060;47.510;8.680;2023-06-24T04:14:47;4.88;;;2.55;;
55170;SDS011;41060;47.510;8.680;2023-06-24T04:17:14;4.57;;;2.45;;
55170;SDS011;41060;47.510;8.680;2023-06-24T04:19:42;4.22;;;2.83;;
55170;SDS011;41060;47.510;8.680;2023-06-24T04:22:10;5.53;;;2.58;;
55170;SDS011;41060;47.510;8.680;2023-06-24T04:24:36;5.50;;;2.53;;
55170;SDS011;41060;47.510;8.680;2023-06-24T04:27:03;5.32;;;2.55;;
55170;SDS011;41060;47.510;8.680;2023-06-24T04:29:32;4.13;;;2.55;;
55170;SDS011;41060;47.510;8.680;2023-06-24T04:31:59;4.13;;;2.40;;
55170;SDS011;41060;47.510;8.680;2023-06-24T04:34:26;3.00;;;2.28;;
55170;SDS011;41060;47.510;8.680;2023-06-24T04:36:56;4.40;;;2.80;;
55170;SDS011;41060;47.510;8.680;2023-06-24T04:39:23;5.93;;;2.72;;
55170;SDS011;41060;47.510;8.680;2023-06-24T04:41:49;8.65;;;2.85;;
55170;SDS011;41060;47.510;8.680;2023-06-24T04:44:17;7.82;;;3.20;;
55170;SDS011;41060;47.510;8.680;2023-06-24T04:46:45;4.65;;;2.42;;
55170;SDS011;41060;47.510;8.680;2023-06-24T04:49:11;4.32;;;2.22;;
55170;SDS011;41060;47.510;8.680;2023-06-24T04:51:38;5.43;;;2.97;;
55170;SDS011;41060;47.510;8.680;2023-06-24T04:54:07;7.30;;;3.58;;
55170;SDS011;41060;47.510;8.680;2023-06-24T04:56:33;6.75;;;3.05;;
55170;SDS011;41060;47.510;8.680;2023-06-24T04:59:01;4.82;;;2.20;;
55170;SDS011;41060;47.510;8.680;2023-06-24T05:01:27;5.85;;;3.10;;
55170;SDS011;41060;47.510;8.680;2023-06-24T05:03:54;5.55;;;3.20;;
55170;SDS011;41060;47.510;8.680;2023-06-24T05:06:24;5.47;;;3.05;;
55170;SDS011;41060;47.510;8.680;2023-06-24T05:08:51;5.60;;;2.83;;
55170;SDS011;41060;47.510;8.680;2023-06-24T05:11:18;5.53;;;3.10;;
55170;SDS011;41060;47.510;8.680;2023-06-24T05:13:46;4.47;;;2.90;;
55170;SDS011;41060;47.510;8.680;2023-06-24T05:16:12;4.57;;;2.85;;
55170;SDS011;41060;47.510;8.680;2023-06-24T05:18:39;5.57;;;3.03;;
55170;SDS011;41060;47.510;8.680;2023-06-24T05:21:06;4.93;;;2.92;;
55170;SDS011;41060;47.510;8.680;2023-06-24T05:23:32;6.97;;;3.65;;
55170;SDS011;41060;47.510;8.680;2023-06-24T05:26:01;6.35;;;3.38;;
55170;SDS011;41060;47.510;8.680;2023-06-24T05:28:30;5.63;;;3.05;;
55170;SDS011;41060;47.510;8.680;2023-06-24T05:30:56;7.07;;;3.53;;
55170;SDS011;41060;47.510;8.680;2023-06-24T05:33:23;6.10;;;3.55;;
55170;SDS011;41060;47.510;8.680;2023-06-24T05:35:50;7.53;;;3.40;;
55170;SDS011;41060;47.510;8.680;2023-06-24T05:38:16;5.72;;;3.05;;
55170;SDS011;41060;47.510;8.680;2023-06-24T05:40:43;7.22;;;4.05;;
55170;SDS011;41060;47.510;8.680;2023-06-24T05:43:10;7.95;;;3.65;;
55170;SDS011;41060;47.510;8.680;2023-06-24T05:45:38;12.57;;;3.33;;
55170;SDS011;41060;47.510;8.680;2023-06-24T05:48:05;7.80;;;3.38;;
55170;SDS011;41060;47.510;8.680;2023-06-24T05:50:32;6.18;;;3.70;;
55170;SDS011;41060;47.510;8.680;2023-06-24T05:52:59;8.40;;;4.00;;
55170;SDS011;41060;47.510;8.680;2023-06-24T05:55:25;7.47;;;3.95;;
55170;SDS011;41060;47.510;8.680;2023-06-24T05:57:52;6.05;;;3.03;;
55170;SDS011;41060;47.510;8.680;2023-06-24T06:00:19;7.40;;;3.55;;
55170;SDS011;41060;47.510;8.680;2023-06-24T06:02:47;7.25;;;4.10;;
55170;SDS011;41060;47.510;8.680;2023-06-24T06:05:14;7.25;;;3.30;;
55170;SDS011;41060;47.510;8.680;2023-06-24T06:07:40;6.32;;;3.45;;
55170;SDS011;41060;47.510;8.680;2023-06-24T06:10:09;7.68;;;3.70;;
55170;SDS011;41060;47.510;8.680;2023-06-24T06:12:36;7.88;;;3.92;;
55170;SDS011;41060;47.510;8.680;2023-06-24T06:15:03;9.57;;;4.60;;
55170;SDS011;41060;47.510;8.680;2023-06-24T06:17:30;7.32;;;4.00;;
55170;SDS011;41060;47.510;8.680;2023-06-24T06:19:58;5.32;;;3.08;;
55170;SDS011;41060;47.510;8.680;2023-06-24T06:22:24;6.32;;;3.38;;
55170;SDS011;41060;47.510;8.680;2023-06-24T06:24:51;7.97;;;4.15;;
55170;SDS011;41060;47.510;8.680;2023-06-24T06:27:18;7.60;;;4.00;;
55170;SDS011;41060;47.510;8.680;2023-06-24T06:29:45;5.88;;;3.63;;
55170;SDS011;41060;47.510;8.680;2023-06-24T06:32:11;5.60;;;3.30;;
55170;SDS011;41060;47.510;8.680;2023-06-24T06:34:38;7.20;;;3.47;;
55170;SDS011;41060;47.510;8.680;2023-06-24T06:37:06;7.00;;;3.53;;
55170;SDS011;41060;47.510;8.680;2023-06-24T06:39:33;8.43;;;3.65;;
55170;SDS011;41060;47.510;8.680;2023-06-24T06:42:00;9.32;;;4.28;;
55170;SDS011;41060;47.510;8.680;2023-06-24T06:44:26;9.00;;;4.30;;
55170;SDS011;41060;47.510;8.680;2023-06-24T06:46:53;6.28;;;3.60;;
55170;SDS011;41060;47.510;8.680;2023-06-24T06:49:20;6.22;;;3.13;;
55170;SDS011;41060;47.510;8.680;2023-06-24T06:51:47;6.78;;;3.50;;
55170;SDS011;41060;47.510;8.680;2023-06-24T06:54:15;6.13;;;3.30;;
55170;SDS011;41060;47.510;8.680;2023-06-24T06:56:45;6.57;;;3.70;;
55170;SDS011;41060;47.510;8.680;2023-06-24T06:59:11;5.55;;;3.15;;
55170;SDS011;41060;47.510;8.680;2023-06-24T07:01:38;6.03;;;3.28;;
55170;SDS011;41060;47.510;8.680;2023-06-24T07:04:05;6.50;;;3.45;;
55170;SDS011;41060;47.510;8.680;2023-06-24T07:06:31;5.45;;;3.15;;
55170;SDS011;41060;47.510;8.680;2023-06-24T07:08:58;4.72;;;2.83;;
55170;SDS011;41060;47.510;8.680;2023-06-24T07:11:27;8.27;;;3.00;;
55170;SDS011;41060;47.510;8.680;2023-06-24T07:13:53;5.22;;;2.88;;
55170;SDS011;41060;47.510;8.680;2023-06-24T07:16:20;6.10;;;2.83;;
55170;SDS011;41060;47.510;8.680;2023-06-24T07:18:47;6.05;;;3.20;;
55170;SDS011;41060;47.510;8.680;2023-06-24T07:21:14;6.55;;;3.08;;
55170;SDS011;41060;47.510;8.680;2023-06-24T07:23:40;4.80;;;2.47;;
55170;SDS011;41060;47.510;8.680;2023-06-24T07:26:08;6.00;;;2.90;;
55170;SDS011;41060;47.510;8.680;2023-06-24T07:28:36;6.13;;;3.17;;
55170;SDS011;41060;47.510;8.680;2023-06-24T07:31:02;4.78;;;2.67;;
55170;SDS011;41060;47.510;8.680;2023-06-24T07:33:29;5.78;;;3.00;;
55170;SDS011;41060;47.510;8.680;2023-06-24T07:35:56;10.40;;;3.45;;
55170;SDS011;41060;47.510;8.680;2023-06-24T07:38:22;5.68;;;2.90;;
55170;SDS011;41060;47.510;8.680;2023-06-24T07:40:52;5.93;;;3.22;;
55170;SDS011;41060;47.510;8.680;2023-06-24T07:43:18;6.15;;;3.42;;
55170;SDS011;41060;47.510;8.680;2023-06-24T07:45:46;4.50;;;2.80;;
55170;SDS011;41060;47.510;8.680;2023-06-24T07:48:13;6.47;;;3.65;;
55170;SDS011;41060;47.510;8.680;2023-06-24T07:50:42;6.25;;;2.90;;
55170;SDS011;41060;47.510;8.680;2023-06-24T07:53:08;7.32;;;3.80;;
55170;SDS011;41060;47.510;8.680;2023-06-24T07:55:36;6.85;;;3.38;;
55170;SDS011;41060;47.510;8.680;2023-06-24T07:58:02;5.63;;;2.65;;
55170;SDS011;41060;47.510;8.680;2023-06-24T08:00:29;7.95;;;3.25;;
55170;SDS011;41060;47.510;8.680;2023-06-24T08:02:58;5.57;;;2.83;;
55170;SDS011;41060;47.510;8.680;2023-06-24T08:05:24;4.68;;;3.13;;
55170;SDS011;41060;47.510;8.680;2023-06-24T08:07:51;9.48;;;2.83;;
55170;SDS011;41060;47.510;8.680;2023-06-24T08:10:19;7.05;;;3.30;;
55170;SDS011;41060;47.510;8.680;2023-06-24T08:12:45;5.05;;;3.05;;
55170;SDS011;41060;47.510;8.680;2023-06-24T08:15:11;7.18;;;2.83;;
55170;SDS011;41060;47.510;8.680;2023-06-24T08:17:39;7.53;;;3.38;;
55170;SDS011;41060;47.510;8.680;2023-06-24T08:20:08;6.13;;;3.20;;
55170;SDS011;41060;47.510;8.680;2023-06-24T08:22:35;5.70;;;3.63;;
55170;SDS011;41060;47.510;8.680;2023-06-24T08:25:03;5.57;;;2.78;;
55170;SDS011;41060;47.510;8.680;2023-06-24T08:27:33;6.78;;;2.95;;
55170;SDS011;41060;47.510;8.680;2023-06-24T08:29:59;6.70;;;2.50;;
55170;SDS011;41060;47.510;8.680;2023-06-24T08:32:29;4.22;;;2.88;;
55170;SDS011;41060;47.510;8.680;2023-06-24T08:34:56;5.43;;;3.03;;
55170;SDS011;41060;47.510;8.680;2023-06-24T08:37:24;5.50;;;2.60;;
55170;SDS011;41060;47.510;8.680;2023-06-24T08:39:51;4.60;;;3.33;;
55170;SDS011;41060;47.510;8.680;2023-06-24T08:42:17;5.80;;;3.22;;
55170;SDS011;41060;47.510;8.680;2023-06-24T08:44:44;6.57;;;3.22;;
55170;SDS011;41060;47.510;8.680;2023-06-24T08:47:11;4.47;;;2.55;;
55170;SDS011;41060;47.510;8.680;2023-06-24T08:49:41;6.05;;;3.17;;
55170;SDS011;41060;47.510;8.680;2023-06-24T08:52:13;6.85;;;3.35;;
55170;SDS011;41060;47.510;8.680;2023-06-24T08:54:45;5.20;;;2.85;;
55170;SDS011;41060;47.510;8.680;2023-06-24T08:57:15;7.60;;;3.13;;
55170;SDS011;41060;47.510;8.680;2023-06-24T08:59:42;5.32;;;3.20;;
55170;SDS011;41060;47.510;8.680;2023-06-24T09:02:08;3.85;;;2.35;;
55170;SDS011;41060;47.510;8.680;2023-06-24T09:04:36;5.57;;;2.60;;
55170;SDS011;41060;47.510;8.680;2023-06-24T09:07:03;6.05;;;2.67;;
55170;SDS011;41060;47.510;8.680;2023-06-24T09:09:30;5.18;;;2.20;;
55170;SDS011;41060;47.510;8.680;2023-06-24T09:11:59;4.18;;;2.40;;
55170;SDS011;41060;47.510;8.680;2023-06-24T09:14:26;4.10;;;2.22;;
55170;SDS011;41060;47.510;8.680;2023-06-24T09:16:55;4.20;;;2.22;;
55170;SDS011;41060;47.510;8.680;2023-06-24T09:19:27;3.45;;;1.90;;
55170;SDS011;41060;47.510;8.680;2023-06-24T09:21:54;4.07;;;2.28;;
55170;SDS011;41060;47.510;8.680;2023-06-24T09:24:21;3.08;;;2.22;;
55170;SDS011;41060;47.510;8.680;2023-06-24T09:26:48;3.60;;;2.05;;
55170;SDS011;41060;47.510;8.680;2023-06-24T09:29:16;3.22;;;2.05;;
55170;SDS011;41060;47.510;8.680;2023-06-24T09:31:46;3.58;;;2.05;;
55170;SDS011;41060;47.510;8.680;2023-06-24T09:34:14;6.22;;;2.10;;
55170;SDS011;41060;47.510;8.680;2023-06-24T09:36:42;3.25;;;1.90;;
55170;SDS011;41060;47.510;8.680;2023-06-24T09:39:09;5.93;;;1.90;;
55170;SDS011;41060;47.510;8.680;2023-06-24T09:41:39;3.58;;;1.90;;
55170;SDS011;41060;47.510;8.680;2023-06-24T09:44:07;2.25;;;1.38;;
55170;SDS011;41060;47.510;8.680;2023-06-24T09:46:36;8.27;;;1.77;;
55170;SDS011;41060;47.510;8.680;2023-06-24T09:49:03;4.38;;;1.52;;
55170;SDS011;41060;47.510;8.680;2023-06-24T09:51:31;2.22;;;1.60;;
55170;SDS011;41060;47.510;8.680;2023-06-24T09:54:03;2.40;;;1.27;;
55170;SDS011;41060;47.510;8.680;2023-06-24T09:56:31;3.40;;;1.60;;
55170;SDS011;41060;47.510;8.680;2023-06-24T09:59:01;2.58;;;1.42;;
55170;SDS011;41060;47.510;8.680;2023-06-24T10:01:30;3.50;;;1.95;;
55170;SDS011;41060;47.510;8.680;2023-06-24T10:03:59;4.13;;;1.60;;
55170;SDS011;41060;47.510;8.680;2023-06-24T10:06:27;2.65;;;1.85;;
55170;SDS011;41060;47.510;8.680;2023-06-24T10:08:55;2.83;;;1.60;;
55170;SDS011;41060;47.510;8.680;2023-06-24T10:11:22;2.78;;;1.73;;
55170;SDS011;41060;47.510;8.680;2023-06-24T10:13:49;4.85;;;1.88;;
55170;SDS011;41060;47.510;8.680;2023-06-24T10:16:17;4.28;;;2.20;;
55170;SDS011;41060;47.510;8.680;2023-06-24T10:18:43;4.13;;;2.10;;
55170;SDS011;41060;47.510;8.680;2023-06-24T10:21:12;4.93;;;2.78;;
55170;SDS011;41060;47.510;8.680;2023-06-24T10:23:41;3.53;;;2.20;;
55170;SDS011;41060;47.510;8.680;2023-06-24T10:26:21;2.20;;;1.70;;
55170;SDS011;41060;47.510;8.680;2023-06-24T10:29:09;5.72;;;2.53;;
55170;SDS011;41060;47.510;8.680;2023-06-24T10:31:51;3.65;;;2.17;;
55170;SDS011;41060;47.510;8.680;2023-06-24T10:34:20;3.13;;;2.00;;
55170;SDS011;41060;47.510;8.680;2023-06-24T10:36:55;4.60;;;2.50;;
55170;SDS011;41060;47.510;8.680;2023-06-24T10:39:34;3.70;;;2.08;;
55170;SDS011;41060;47.510;8.680;2023-06-24T10:45:19;3.78;;;1.95;;
55170;SDS011;41060;47.510;8.680;2023-06-24T10:47:47;3.70;;;2.10;;
55170;SDS011;41060;47.510;8.680;2023-06-24T10:50:15;5.45;;;2.10;;
55170;SDS011;41060;47.510;8.680;2023-06-24T10:52:44;3.33;;;2.10;;
55170;SDS011;41060;47.510;8.680;2023-06-24T10:55:13;2.42;;;1.63;;
55170;SDS011;41060;47.510;8.680;2023-06-24T10:57:40;2.40;;;1.95;;
55170;SDS011;41060;47.510;8.680;2023-06-24T11:00:08;2.65;;;1.67;;
55170;SDS011;41060;47.510;8.680;2023-06-24T11:02:35;3.83;;;2.00;;
55170;SDS011;41060;47.510;8.680;2023-06-24T11:05:03;4.15;;;2.17;;
55170;SDS011;41060;47.510;8.680;2023-06-24T11:07:32;3.88;;;2.22;;
55170;SDS011;41060;47.510;8.680;2023-06-24T11:10:02;6.95;;;1.88;;
55170;SDS011;41060;47.510;8.680;2023-06-24T11:12:34;3.40;;;1.98;;
55170;SDS011;41060;47.510;8.680;2023-06-24T11:15:02;3.33;;;1.83;;
55170;SDS011;41060;47.510;8.680;2023-06-24T11:17:30;2.33;;;1.60;;
55170;SDS011;41060;47.510;8.680;2023-06-24T11:19:57;5.43;;;2.20;;
55170;SDS011;41060;47.510;8.680;2023-06-24T11:22:26;4.22;;;2.13;;
55170;SDS011;41060;47.510;8.680;2023-06-24T11:24:53;2.78;;;2.30;;
55170;SDS011;41060;47.510;8.680;2023-06-24T11:27:25;3.72;;;2.13;;
55170;SDS011;41060;47.510;8.680;2023-06-24T11:29:53;2.60;;;1.63;;
55170;SDS011;41060;47.510;8.680;2023-06-24T11:32:20;3.20;;;1.85;;
55170;SDS011;41060;47.510;8.680;2023-06-24T11:34:47;3.08;;;2.03;;
55170;SDS011;41060;47.510;8.680;2023-06-24T11:37:15;3.42;;;2.00;;
55170;SDS011;41060;47.510;8.680;2023-06-24T11:39:44;4.40;;;2.38;;
55170;SDS011;41060;47.510;8.680;2023-06-24T11:42:13;3.42;;;2.28;;
55170;SDS011;41060;47.510;8.680;2023-06-24T11:44:44;3.08;;;1.90;;
55170;SDS011;41060;47.510;8.680;2023-06-24T11:47:11;7.68;;;1.80;;
55170;SDS011;41060;47.510;8.680;2023-06-24T11:49:48;4.10;;;2.13;;
55170;SDS011;41060;47.510;8.680;2023-06-24T11:52:16;3.90;;;2.00;;
55170;SDS011;41060;47.510;8.680;2023-06-24T11:54:42;4.15;;;1.90;;
55170;SDS011;41060;47.510;8.680;2023-06-24T11:57:09;3.78;;;2.28;;
55170;SDS011;41060;47.510;8.680;2023-06-24T11:59:38;4.68;;;2.35;;
55170;SDS011;41060;47.510;8.680;2023-06-24T12:02:06;3.03;;;2.05;;
55170;SDS011;41060;47.510;8.680;2023-06-24T12:04:33;4.80;;;2.33;;
55170;SDS011;41060;47.510;8.680;2023-06-24T12:07:00;4.70;;;2.03;;
55170;SDS011;41060;47.510;8.680;2023-06-24T12:09:27;3.92;;;2.33;;
55170;SDS011;41060;47.510;8.680;2023-06-24T12:11:54;6.43;;;2.55;;
55170;SDS011;41060;47.510;8.680;2023-06-24T12:14:22;4.35;;;2.15;;
55170;SDS011;41060;47.510;8.680;2023-06-24T12:16:49;4.95;;;2.38;;
55170;SDS011;41060;47.510;8.680;2023-06-24T12:19:17;3.00;;;2.17;;
55170;SDS011;41060;47.510;8.680;2023-06-24T12:21:46;3.00;;;2.10;;
55170;SDS011;41060;47.510;8.680;2023-06-24T12:24:13;4.18;;;2.60;;
55170;SDS011;41060;47.510;8.680;2023-06-24T12:26:39;3.85;;;2.10;;
55170;SDS011;41060;47.510;8.680;2023-06-24T12:29:06;2.70;;;2.08;;
55170;SDS011;41060;47.510;8.680;2023-06-24T12:31:33;4.25;;;2.22;;
55170;SDS011;41060;47.510;8.680;2023-06-24T12:34:02;4.15;;;2.42;;
55170;SDS011;41060;47.510;8.680;2023-06-24T12:36:32;5.10;;;2.17;;
55170;SDS011;41060;47.510;8.680;2023-06-24T12:38:58;5.97;;;2.40;;
55170;SDS011;41060;47.510;8.680;2023-06-24T12:41:25;3.85;;;2.20;;
55170;SDS011;41060;47.510;8.680;2023-06-24T12:43:53;2.40;;;1.73;;
55170;SDS011;41060;47.510;8.680;2023-06-24T12:46:20;3.10;;;2.13;;
55170;SDS011;41060;47.510;8.680;2023-06-24T12:48:46;4.03;;;2.25;;
55170;SDS011;41060;47.510;8.680;2023-06-24T12:51:14;3.25;;;1.95;;
55170;SDS011;41060;47.510;8.680;2023-06-24T12:53:41;3.95;;;2.30;;
55170;SDS011;41060;47.510;8.680;2023-06-24T12:56:08;4.60;;;2.35;;
55170;SDS011;41060;47.510;8.680;2023-06-24T12:58:35;4.10;;;2.10;;
55170;SDS011;41060;47.510;8.680;2023-06-24T13:01:02;4.85;;;2.15;;
55170;SDS011;41060;47.510;8.680;2023-06-24T13:03:28;9.25;;;2.20;;
55170;SDS011;41060;47.510;8.680;2023-06-24T13:05:55;3.22;;;2.17;;
55170;SDS011;41060;47.510;8.680;2023-06-24T13:08:22;3.75;;;2.33;;
55170;SDS011;41060;47.510;8.680;2023-06-24T13:10:50;3.10;;;2.15;;
55170;SDS011;41060;47.510;8.680;2023-06-24T13:13:17;2.75;;;2.05;;
55170;SDS011;41060;47.510;8.680;2023-06-24T13:15:43;4.40;;;2.00;;
55170;SDS011;41060;47.510;8.680;2023-06-24T13:18:10;4.10;;;2.03;;
55170;SDS011;41060;47.510;8.680;2023-06-24T13:20:37;3.58;;;2.30;;
55170;SDS011;41060;47.510;8.680;2023-06-24T13:23:03;3.15;;;2.08;;
55170;SDS011;41060;47.510;8.680;2023-06-24T13:25:30;3.22;;;2.00;;
55170;SDS011;41060;47.510;8.680;2023-06-24T13:27:59;3.65;;;2.00;;
55170;SDS011;41060;47.510;8.680;2023-06-24T13:30:27;3.30;;;2.08;;
55170;SDS011;41060;47.510;8.680;2023-06-24T13:32:53;2.95;;;2.10;;
55170;SDS011;41060;47.510;8.680;2023-06-24T13:35:20;2.70;;;1.75;;
55170;SDS011;41060;47.510;8.680;2023-06-24T13:37:47;4.10;;;2.28;;
55170;SDS011;41060;47.510;8.680;2023-06-24T13:40:13;3.92;;;1.90;;
55170;SDS011;41060;47.510;8.680;2023-06-24T13:42:40;2.85;;;1.90;;
55170;SDS011;41060;47.510;8.680;2023-06-24T13:45:09;4.70;;;2.20;;
55170;SDS011;41060;47.510;8.680;2023-06-24T13:47:36;3.17;;;2.00;;
55170;SDS011;41060;47.510;8.680;2023-06-24T13:50:04;3.97;;;1.83;;
55170;SDS011;41060;47.510;8.680;2023-06-24T13:52:35;2.63;;;1.83;;
55170;SDS011;41060;47.510;8.680;2023-06-24T13:55:02;2.78;;;2.00;;
55170;SDS011;41060;47.510;8.680;2023-06-24T13:57:29;4.97;;;2.53;;
55170;SDS011;41060;47.510;8.680;2023-06-24T13:59:56;2.88;;;2.03;;
55170;SDS011;41060;47.510;8.680;2023-06-24T14:02:24;2.95;;;1.98;;
55170;SDS011;41060;47.510;8.680;2023-06-24T14:04:51;3.35;;;1.90;;
55170;SDS011;41060;47.510;8.680;2023-06-24T14:07:18;2.83;;;1.85;;
55170;SDS011;41060;47.510;8.680;2023-06-24T14:09:44;3.08;;;1.85;;
55170;SDS011;41060;47.510;8.680;2023-06-24T14:12:14;5.63;;;2.45;;
55170;SDS011;41060;47.510;8.680;2023-06-24T14:14:41;2.72;;;1.77;;
55170;SDS011;41060;47.510;8.680;2023-06-24T14:17:07;5.13;;;2.10;;
55170;SDS011;41060;47.510;8.680;2023-06-24T14:19:38;3.35;;;2.03;;
55170;SDS011;41060;47.510;8.680;2023-06-24T14:22:06;2.65;;;2.00;;
55170;SDS011;41060;47.510;8.680;2023-06-24T14:24:33;3.15;;;1.80;;
55170;SDS011;41060;47.510;8.680;2023-06-24T14:27:00;2.45;;;2.10;;
55170;SDS011;41060;47.510;8.680;2023-06-24T14:29:26;3.58;;;1.85;;
55170;SDS011;41060;47.510;8.680;2023-06-24T14:31:53;3.25;;;1.73;;
55170;SDS011;41060;47.510;8.680;2023-06-24T14:34:20;4.22;;;2.00;;
55170;SDS011;41060;47.510;8.680;2023-06-24T14:36:48;3.47;;;1.92;;
55170;SDS011;41060;47.510;8.680;2023-06-24T14:39:15;2.13;;;1.63;;
55170;SDS011;41060;47.510;8.680;2023-06-24T14:41:43;2.45;;;1.75;;
55170;SDS011;41060;47.510;8.680;2023-06-24T14:44:09;3.38;;;2.20;;
55170;SDS011;41060;47.510;8.680;2023-06-24T14:46:36;3.35;;;1.80;;
55170;SDS011;41060;47.510;8.680;2023-06-24T14:49:03;3.22;;;2.63;;
55170;SDS011;41060;47.510;8.680;2023-06-24T14:51:29;3.00;;;1.75;;
55170;SDS011;41060;47.510;8.680;2023-06-24T14:53:57;3.13;;;1.88;;
55170;SDS011;41060;47.510;8.680;2023-06-24T14:56:24;4.85;;;2.17;;